createdAt,value
2018-06-19T00:01:25.499Z,3.67
2018-06-19T00:03:53.769Z,3.60
2018-06-19T00:06:22.095Z,3.70
2018-06-19T00:08:50.471Z,3.70
2018-06-19T00:11:18.825Z,3.63
2018-06-19T00:13:47.135Z,3.70
2018-06-19T00:16:15.444Z,3.90
2018-06-19T00:18:50.019Z,4.10
2018-06-19T00:21:22.336Z,4.10
2018-06-19T00:23:50.652Z,5.30
2018-06-19T00:26:19.040Z,4.17
2018-06-19T00:28:48.111Z,10.97
2018-06-19T00:31:16.707Z,5.27
2018-06-19T00:33:45.123Z,4.47
2018-06-19T00:36:13.427Z,4.10
2018-06-19T00:38:41.747Z,4.53
2018-06-19T00:41:10.026Z,4.17
2018-06-19T00:43:38.403Z,4.10
2018-06-19T00:46:07.804Z,4.17
2018-06-19T00:48:36.202Z,3.77
2018-06-19T00:51:05.166Z,4.07
2018-06-19T00:53:33.484Z,3.90
2018-06-19T00:56:13.302Z,4.17
2018-06-19T00:58:41.837Z,4.33
2018-06-19T01:01:10.200Z,3.90
2018-06-19T01:03:38.512Z,3.97
2018-06-19T01:06:06.519Z,4.20
2018-06-19T01:08:34.915Z,3.40
2018-06-19T01:11:03.492Z,3.77
2018-06-19T01:13:31.777Z,3.50
2018-06-19T01:16:00.089Z,3.70
2018-06-19T01:18:28.179Z,3.53
2018-06-19T01:20:56.547Z,3.70
2018-06-19T01:23:24.925Z,3.80
2018-06-19T01:25:53.819Z,4.13
2018-06-19T01:28:22.205Z,3.80
2018-06-19T01:30:50.651Z,3.60
2018-06-19T01:33:19.059Z,4.23
2018-06-19T01:35:47.598Z,3.70
2018-06-19T01:38:16.064Z,3.63
2018-06-19T01:40:44.572Z,3.93
2018-06-19T01:43:12.954Z,3.83
2018-06-19T01:45:41.319Z,3.77
2018-06-19T01:48:09.705Z,3.93
2018-06-19T01:50:38.132Z,3.93
2018-06-19T01:53:06.494Z,3.73
2018-06-19T01:55:35.023Z,3.70
2018-06-19T01:58:03.343Z,4.13
2018-06-19T02:00:31.687Z,3.23
2018-06-19T02:02:59.991Z,3.80
2018-06-19T02:05:28.352Z,3.73
2018-06-19T02:07:56.724Z,3.97
2018-06-19T02:10:25.099Z,4.07
2018-06-19T02:12:53.382Z,4.20
2018-06-19T02:15:21.664Z,3.93
2018-06-19T02:17:49.960Z,4.13
2018-06-19T02:20:18.277Z,4.30
2018-06-19T02:22:46.675Z,3.50
2018-06-19T02:25:15.012Z,3.80
2018-06-19T02:27:43.396Z,3.80
2018-06-19T02:30:11.687Z,4.40
2018-06-19T02:32:40.086Z,4.10
2018-06-19T02:35:08.363Z,4.20
2018-06-19T02:37:36.682Z,4.30
2018-06-19T02:40:04.978Z,3.97
2018-06-19T02:42:33.287Z,4.10
2018-06-19T02:45:01.616Z,4.10
2018-06-19T02:47:29.909Z,4.20
2018-06-19T02:49:58.204Z,4.20
2018-06-19T02:52:26.504Z,4.20
2018-06-19T02:54:54.985Z,4.00
2018-06-19T02:57:23.279Z,4.30
2018-06-19T02:59:51.683Z,4.40
2018-06-19T03:02:20.032Z,4.70
2018-06-19T03:04:48.607Z,4.10
2018-06-19T03:07:16.904Z,4.27
2018-06-19T03:09:45.250Z,4.60
2018-06-19T03:12:13.523Z,4.33
2018-06-19T03:14:41.822Z,4.97
2018-06-19T03:17:10.136Z,4.70
2018-06-19T03:19:38.435Z,5.13
2018-06-19T03:22:06.758Z,5.60
2018-06-19T03:24:35.084Z,5.30
2018-06-19T03:27:03.358Z,5.13
2018-06-19T03:29:31.643Z,4.93
2018-06-19T03:31:59.936Z,5.20
2018-06-19T03:34:28.205Z,4.97
2018-06-19T03:36:56.523Z,5.27
2018-06-19T03:39:24.815Z,5.70
2018-06-19T03:41:53.151Z,5.10
2018-06-19T03:44:21.486Z,5.77
2018-06-19T03:46:49.788Z,5.70
2018-06-19T03:49:18.104Z,5.70
2018-06-19T03:51:46.417Z,5.30
2018-06-19T03:54:14.796Z,5.87
2018-06-19T03:56:43.145Z,5.17
2018-06-19T03:59:11.454Z,5.57
2018-06-19T04:01:39.760Z,4.90
2018-06-19T04:04:08.035Z,4.30
2018-06-19T04:06:36.386Z,4.57
2018-06-19T04:09:07.211Z,4.57
2018-06-19T04:11:35.536Z,4.43
2018-06-19T04:14:03.861Z,4.20
2018-06-19T04:16:32.158Z,4.50
2018-06-19T04:19:00.670Z,4.57
2018-06-19T04:21:28.973Z,4.23
2018-06-19T04:23:57.066Z,5.17
2018-06-19T04:26:25.397Z,4.70
2018-06-19T04:28:53.983Z,4.33
2018-06-19T04:31:22.297Z,4.10
2018-06-19T04:33:50.618Z,4.67
2018-06-19T04:36:18.909Z,4.50
2018-06-19T04:38:47.712Z,4.80
2018-06-19T04:41:16.179Z,4.40
2018-06-19T04:43:44.488Z,5.20
2018-06-19T04:46:12.773Z,4.73
2018-06-19T04:48:41.071Z,4.80
2018-06-19T04:51:09.500Z,4.87
2018-06-19T04:53:37.820Z,5.10
2018-06-19T04:56:06.162Z,5.33
2018-06-19T04:58:34.522Z,5.17
2018-06-19T05:01:02.852Z,4.70
2018-06-19T05:03:31.129Z,4.90
2018-06-19T05:05:59.430Z,5.37
2018-06-19T05:08:27.872Z,4.60
2018-06-19T05:10:56.630Z,4.30
2018-06-19T05:13:25.155Z,4.47
2018-06-19T05:15:53.536Z,4.70
2018-06-19T05:18:21.905Z,4.60
2018-06-19T05:20:50.231Z,4.27
2018-06-19T05:23:18.507Z,4.30
2018-06-19T05:25:46.841Z,4.13
2018-06-19T05:28:15.176Z,3.80
2018-06-19T05:30:43.507Z,3.90
2018-06-19T05:33:11.807Z,3.90
2018-06-19T05:35:40.111Z,3.50
2018-06-19T05:38:08.388Z,3.73
2018-06-19T05:40:36.908Z,3.77
2018-06-19T05:43:05.198Z,3.60
2018-06-19T05:45:33.519Z,3.60
2018-06-19T05:49:04.878Z,3.73
2018-06-19T05:51:33.194Z,3.67
2018-06-19T05:54:01.566Z,4.03
2018-06-19T05:56:29.895Z,3.60
2018-06-19T05:58:58.182Z,3.40
2018-06-19T06:01:26.484Z,3.30
2018-06-19T06:03:54.929Z,3.93
2018-06-19T06:06:23.263Z,3.53
2018-06-19T06:08:51.563Z,3.50
2018-06-19T06:11:19.881Z,3.30
2018-06-19T06:13:48.363Z,3.33
2018-06-19T06:16:16.391Z,3.43
2018-06-19T06:18:44.763Z,3.67
2018-06-19T06:21:13.574Z,3.77
2018-06-19T06:23:43.354Z,3.10
2018-06-19T06:26:11.901Z,3.60
2018-06-19T06:28:40.254Z,3.20
2018-06-19T06:31:08.890Z,3.37
2018-06-19T06:33:39.054Z,3.50
2018-06-19T06:36:07.680Z,2.70
2018-06-19T06:38:36.249Z,2.90
2018-06-19T06:41:04.768Z,3.37
2018-06-19T06:43:33.279Z,3.17
2018-06-19T06:46:01.756Z,3.20
2018-06-19T06:48:30.448Z,3.00
2018-06-19T06:50:59.005Z,3.47
2018-06-19T06:53:27.568Z,2.90
2018-06-19T06:55:55.875Z,2.80
2018-06-19T06:58:24.430Z,2.83
2018-06-19T07:00:52.851Z,2.77
2018-06-19T07:03:22.135Z,2.90
2018-06-19T07:05:50.615Z,2.50
2018-06-19T07:08:18.983Z,2.70
2018-06-19T07:10:48.041Z,2.77
2018-06-19T07:13:16.340Z,2.47
2018-06-19T07:15:44.768Z,2.90
2018-06-19T07:18:12.808Z,2.60
2018-06-19T07:20:41.268Z,2.80
2018-06-19T07:23:09.571Z,2.80
2018-06-19T07:25:37.882Z,2.90
2018-06-19T07:28:06.200Z,2.67
2018-06-19T07:30:34.624Z,2.50
2018-06-19T07:33:02.990Z,2.67
2018-06-19T07:35:31.331Z,2.40
2018-06-19T07:37:59.694Z,2.70
2018-06-19T07:40:28.044Z,2.53
2018-06-19T07:43:00.588Z,2.40
2018-06-19T07:45:28.932Z,2.20
2018-06-19T07:47:57.264Z,2.60
2018-06-19T07:50:25.634Z,2.40
2018-06-19T07:52:53.910Z,2.50
2018-06-19T07:55:22.203Z,2.43
2018-06-19T07:57:50.527Z,2.43
2018-06-19T08:00:18.832Z,3.23
2018-06-19T08:02:47.167Z,2.73
2018-06-19T08:05:15.499Z,2.43
2018-06-19T08:07:43.845Z,2.40
2018-06-19T08:10:12.171Z,2.83
2018-06-19T08:12:40.488Z,2.43
2018-06-19T08:15:08.800Z,2.13
2018-06-19T08:17:37.114Z,2.13
2018-06-19T08:20:05.473Z,2.40
2018-06-19T08:22:33.804Z,2.57
2018-06-19T08:25:02.181Z,2.30
2018-06-19T08:27:30.545Z,2.10
2018-06-19T08:29:58.852Z,1.83
2018-06-19T08:32:27.185Z,2.10
2018-06-19T08:34:55.979Z,1.80
2018-06-19T08:37:25.101Z,1.97
2018-06-19T08:39:53.600Z,1.90
2018-06-19T08:42:21.935Z,2.07
2018-06-19T08:44:50.335Z,1.90
2018-06-19T08:47:18.641Z,2.10
2018-06-19T08:49:46.975Z,1.80
2018-06-19T08:52:15.282Z,1.80
2018-06-19T08:54:43.643Z,1.60
2018-06-19T08:57:11.950Z,1.97
2018-06-19T08:59:40.272Z,2.30
2018-06-19T09:02:09.008Z,2.27
2018-06-19T09:04:37.388Z,2.00
2018-06-19T09:07:06.016Z,1.80
2018-06-19T09:09:34.329Z,1.50
2018-06-19T09:12:02.959Z,2.17
2018-06-19T09:14:31.332Z,2.23
2018-06-19T09:16:59.657Z,2.57
2018-06-19T09:19:27.995Z,1.80
2018-06-19T09:21:56.289Z,1.90
2018-06-19T09:24:25.477Z,1.70
2018-06-19T09:26:53.818Z,1.80
2018-06-19T09:29:22.166Z,1.60
2018-06-19T09:31:50.469Z,1.90
2018-06-19T09:34:18.835Z,1.60
2018-06-19T09:36:47.303Z,2.20
2018-06-19T09:39:15.605Z,3.20
2018-06-19T09:41:44.899Z,8.10
2018-06-19T09:44:13.318Z,7.00
2018-06-19T09:46:42.062Z,4.30
2018-06-19T09:49:10.487Z,8.10
2018-06-19T09:51:39.851Z,3.90
2018-06-19T09:54:08.171Z,2.60
2018-06-19T09:56:36.542Z,2.87
2018-06-19T09:59:05.133Z,2.20
2018-06-19T10:01:33.467Z,3.00
2018-06-19T10:04:01.767Z,2.13
2018-06-19T10:06:30.388Z,1.70
2018-06-19T10:08:58.646Z,1.70
2018-06-19T10:11:26.963Z,1.30
2018-06-19T10:13:55.258Z,1.50
2018-06-19T10:16:24.496Z,1.60
2018-06-19T10:18:52.834Z,1.47
2018-06-19T10:21:21.158Z,1.50
2018-06-19T10:23:49.471Z,1.63
2018-06-19T10:26:17.811Z,1.60
2018-06-19T10:28:46.185Z,1.70
2018-06-19T10:31:14.595Z,1.40
2018-06-19T10:33:42.886Z,1.47
2018-06-19T10:36:11.295Z,1.40
2018-06-19T10:38:39.679Z,1.20
2018-06-19T10:41:08.221Z,1.20
2018-06-19T10:43:36.547Z,1.10
2018-06-19T10:46:06.290Z,1.20
2018-06-19T10:48:34.662Z,1.00
2018-06-19T10:51:03.002Z,1.20
2018-06-19T10:53:31.382Z,1.33
2018-06-19T10:55:59.885Z,1.40
2018-06-19T10:58:28.992Z,2.40
2018-06-19T11:00:57.389Z,1.57
2018-06-19T11:03:25.619Z,1.50
2018-06-19T11:05:53.988Z,1.10
2018-06-19T11:08:22.362Z,1.20
2018-06-19T11:10:50.654Z,1.40
2018-06-19T11:13:18.935Z,1.30
2018-06-19T11:15:47.252Z,1.20
2018-06-19T11:18:15.594Z,1.20
2018-06-19T11:20:43.929Z,1.40
2018-06-19T11:23:12.208Z,1.43
2018-06-19T11:25:40.565Z,1.20
2018-06-19T11:28:08.842Z,1.10
2018-06-19T11:30:37.227Z,1.13
2018-06-19T11:33:05.287Z,1.17
2018-06-19T11:35:33.615Z,2.40
2018-06-19T11:38:01.939Z,1.60
2018-06-19T11:40:30.241Z,1.40
2018-06-19T11:42:58.586Z,1.17
2018-06-19T11:45:26.943Z,1.30
2018-06-19T11:47:55.367Z,5.10
2018-06-19T11:50:23.729Z,7.23
2018-06-19T11:52:52.051Z,1.43
2018-06-19T11:55:20.836Z,1.33
2018-06-19T11:57:49.137Z,1.20
2018-06-19T12:00:17.520Z,1.10
2018-06-19T12:02:45.838Z,1.00
2018-06-19T12:05:14.131Z,1.10
2018-06-19T12:07:44.105Z,0.80
2018-06-19T12:10:12.384Z,1.00
2018-06-19T12:12:41.142Z,1.10
2018-06-19T12:15:09.426Z,0.97
2018-06-19T12:17:37.807Z,1.00
2018-06-19T12:20:06.945Z,0.97
2018-06-19T12:22:35.484Z,1.00
2018-06-19T12:25:03.856Z,1.10
2018-06-19T12:27:32.218Z,1.10
2018-06-19T12:30:00.521Z,1.50
2018-06-19T12:32:28.938Z,1.30
2018-06-19T12:34:57.577Z,1.10
2018-06-19T12:37:26.207Z,1.20
2018-06-19T12:39:54.659Z,1.60
2018-06-19T12:42:22.978Z,1.70
2018-06-19T12:44:51.301Z,1.60
2018-06-19T12:47:19.783Z,1.33
2018-06-19T12:50:35.175Z,1.20
2018-06-19T12:53:15.650Z,1.20
2018-06-19T12:55:55.374Z,1.10
2018-06-19T12:58:23.722Z,2.10
2018-06-19T13:00:52.044Z,1.40
2018-06-19T13:03:31.676Z,1.30
2018-06-19T13:06:11.715Z,1.40
2018-06-19T13:08:40.040Z,1.20
2018-06-19T13:11:09.383Z,0.90
2018-06-19T13:13:49.166Z,1.10
2018-06-19T13:16:28.758Z,1.00
2018-06-19T13:19:08.632Z,1.23
2018-06-19T13:21:36.926Z,1.13
2018-06-19T13:24:05.248Z,1.20
2018-06-19T13:26:33.634Z,1.00
2018-06-19T13:29:44.061Z,1.60
2018-06-19T13:32:12.388Z,9.40
2018-06-19T13:34:40.754Z,2.53
2018-06-19T13:37:09.170Z,1.60
2018-06-19T13:39:38.244Z,1.20
2018-06-19T13:42:19.913Z,1.40
2018-06-19T13:44:52.400Z,1.40
2018-06-19T13:47:21.801Z,1.30
2018-06-19T13:49:50.260Z,1.10
2018-06-19T13:52:18.481Z,1.13
2018-06-19T13:54:46.828Z,1.40
2018-06-19T13:57:32.858Z,1.40
2018-06-19T14:00:02.570Z,1.30
2018-06-19T14:02:31.044Z,1.13
2018-06-19T14:04:59.821Z,1.90
2018-06-19T14:07:29.079Z,2.10
2018-06-19T14:10:08.834Z,2.30
2018-06-19T14:13:13.894Z,1.60
2018-06-19T14:15:45.380Z,1.33
2018-06-19T14:18:14.526Z,1.53
2018-06-19T14:20:43.255Z,1.20
2018-06-19T14:23:11.922Z,1.83
2018-06-19T14:25:40.480Z,1.60
2018-06-19T14:28:08.812Z,1.30
2018-06-19T14:30:37.656Z,1.40
2018-06-19T14:33:06.099Z,1.47
2018-06-19T14:35:34.203Z,1.20
2018-06-19T14:38:02.499Z,1.37
2018-06-19T14:40:31.447Z,1.60
2018-06-19T14:42:59.766Z,1.50
2018-06-19T14:45:28.072Z,1.47
2018-06-19T14:47:56.464Z,1.20
2018-06-19T14:50:24.542Z,1.60
2018-06-19T14:52:52.885Z,1.90
2018-06-19T14:55:21.193Z,1.60
2018-06-19T14:57:49.576Z,1.30
2018-06-19T15:00:17.951Z,1.40
2018-06-19T15:02:46.577Z,1.43
2018-06-19T15:05:14.896Z,1.87
2018-06-19T15:07:48.564Z,1.73
2018-06-19T15:10:16.939Z,1.40
2018-06-19T15:12:45.270Z,1.40
2018-06-19T15:15:13.633Z,1.53
2018-06-19T15:17:41.976Z,1.67
2018-06-19T15:20:10.323Z,2.00
2018-06-19T15:22:38.710Z,1.70
2018-06-19T15:25:07.052Z,1.57
2018-06-19T15:27:35.428Z,1.70
2018-06-19T15:30:03.554Z,1.70
2018-06-19T15:32:31.891Z,1.50
2018-06-19T15:35:00.299Z,1.63
2018-06-19T15:37:28.605Z,2.00
2018-06-19T15:39:56.925Z,2.17
2018-06-19T15:42:25.220Z,2.53
2018-06-19T15:44:53.551Z,2.20
2018-06-19T15:47:21.860Z,2.30
2018-06-19T15:49:50.236Z,2.23
2018-06-19T15:52:18.739Z,2.10
2018-06-19T15:54:47.152Z,1.90
2018-06-19T15:57:15.443Z,2.00
2018-06-19T15:59:44.012Z,2.00
2018-06-19T16:02:12.342Z,1.80
2018-06-19T16:04:40.833Z,2.00
2018-06-19T16:07:09.182Z,2.07
2018-06-19T16:09:37.531Z,1.93
2018-06-19T16:12:06.033Z,1.60
2018-06-19T16:14:34.398Z,1.60
2018-06-19T16:17:02.687Z,1.70
2018-06-19T16:19:30.998Z,1.97
2018-06-19T16:21:59.324Z,1.70
2018-06-19T16:24:27.627Z,1.80
2018-06-19T16:26:55.637Z,1.80
2018-06-19T16:29:23.961Z,1.73
2018-06-19T16:31:52.385Z,1.70
2018-06-19T16:34:20.716Z,1.80
2018-06-19T16:36:49.006Z,1.90
2018-06-19T16:39:17.358Z,1.70
2018-06-19T16:41:45.662Z,4.23
2018-06-19T16:44:13.970Z,3.20
2018-06-19T16:46:42.355Z,1.80
2018-06-19T16:49:10.652Z,2.17
2018-06-19T16:51:39.012Z,2.50
2018-06-19T16:54:07.384Z,2.40
2018-06-19T16:56:35.665Z,2.53
2018-06-19T16:59:03.972Z,3.77
2018-06-19T17:01:32.515Z,1.80
2018-06-19T17:04:00.902Z,2.10
2018-06-19T17:06:29.255Z,2.13
2018-06-19T17:08:57.560Z,2.00
2018-06-19T17:11:25.892Z,1.90
2018-06-19T17:13:54.215Z,1.97
2018-06-19T17:16:22.615Z,2.33
2018-06-19T17:18:50.909Z,2.03
2018-06-19T17:21:19.273Z,2.00
2018-06-19T17:23:47.630Z,2.07
2018-06-19T17:26:16.000Z,1.90
2018-06-19T17:28:44.326Z,2.10
2018-06-19T17:31:12.862Z,2.13
2018-06-19T17:33:41.208Z,2.30
2018-06-19T17:36:09.508Z,2.20
2018-06-19T17:38:38.106Z,2.40
2018-06-19T17:41:06.556Z,2.10
2018-06-19T17:43:34.906Z,2.30
2018-06-19T17:46:03.184Z,2.27
2018-06-19T17:48:31.554Z,2.40
2018-06-19T17:50:59.917Z,2.70
2018-06-19T17:53:28.255Z,2.20
2018-06-19T17:55:56.566Z,2.23
2018-06-19T17:58:25.000Z,2.30
2018-06-19T18:00:53.299Z,2.00
2018-06-19T18:03:21.664Z,2.27
2018-06-19T18:05:50.040Z,2.10
2018-06-19T18:08:18.496Z,2.10
2018-06-19T18:10:47.032Z,2.10
2018-06-19T18:13:16.150Z,2.50
2018-06-19T18:15:44.595Z,2.50
2018-06-19T18:18:13.559Z,2.47
2018-06-19T18:20:41.890Z,2.60
2018-06-19T18:23:10.227Z,2.40
2018-06-19T18:25:38.543Z,2.33
2018-06-19T18:28:07.199Z,2.80
2018-06-19T18:30:35.590Z,2.40
2018-06-19T18:33:03.961Z,2.50
2018-06-19T18:35:32.314Z,2.70
2018-06-19T18:38:00.641Z,2.70
2018-06-19T18:40:28.968Z,2.50
2018-06-19T18:42:57.353Z,3.00
2018-06-19T18:45:25.895Z,2.77
2018-06-19T18:47:54.397Z,3.13
2018-06-19T18:50:22.846Z,2.60
2018-06-19T18:52:51.216Z,2.70
2018-06-19T18:55:19.739Z,2.80
2018-06-19T18:57:48.040Z,2.97
2018-06-19T19:00:16.399Z,2.60
2018-06-19T19:02:44.694Z,2.87
2018-06-19T19:05:13.091Z,3.00
2018-06-19T19:07:41.396Z,2.97
2018-06-19T19:10:15.178Z,2.93
2018-06-19T19:12:43.629Z,2.83
2018-06-19T19:15:17.276Z,2.53
2018-06-19T19:17:51.042Z,2.97
2018-06-19T19:20:19.339Z,3.20
2018-06-19T19:22:47.756Z,3.43
2018-06-19T19:25:17.023Z,3.20
2018-06-19T19:27:50.805Z,3.40
2018-06-19T19:30:19.168Z,3.30
2018-06-19T19:32:47.471Z,3.37
2018-06-19T19:35:15.765Z,3.03
2018-06-19T19:37:49.494Z,2.87
2018-06-19T19:40:17.936Z,2.90
2018-06-19T19:42:46.355Z,3.10
2018-06-19T19:45:14.643Z,3.17
2018-06-19T19:47:48.391Z,2.97
2018-06-19T19:50:16.785Z,3.00
2018-06-19T19:52:45.141Z,3.07
2018-06-19T19:55:13.443Z,3.17
2018-06-19T19:58:44.791Z,2.93
2018-06-19T20:01:13.135Z,2.83
2018-06-19T20:03:41.522Z,3.17
2018-06-19T20:06:09.838Z,3.13
2018-06-19T20:08:38.193Z,3.37
2018-06-19T20:11:06.636Z,3.03
2018-06-19T20:13:34.701Z,2.87
2018-06-19T20:16:03.069Z,3.17
2018-06-19T20:18:31.591Z,2.80
2018-06-19T20:20:59.976Z,2.90
2018-06-19T20:23:28.340Z,3.10
2018-06-19T20:25:56.719Z,2.50
2018-06-19T20:28:25.081Z,2.87
2018-06-19T20:30:53.464Z,2.60
2018-06-19T20:33:21.868Z,2.77
2018-06-19T20:35:50.221Z,3.13
2018-06-19T20:38:18.562Z,2.70
2018-06-19T20:40:46.911Z,2.90
2018-06-19T20:43:15.307Z,2.70
2018-06-19T20:45:43.657Z,3.20
2018-06-19T20:48:12.302Z,3.00
2018-06-19T20:50:40.744Z,3.03
2018-06-19T20:53:09.111Z,2.73
2018-06-19T20:55:37.436Z,2.93
2018-06-19T20:58:05.986Z,3.40
2018-06-19T21:00:34.364Z,3.47
2018-06-19T21:03:02.713Z,3.30
2018-06-19T21:05:31.061Z,2.80
2018-06-19T21:07:59.372Z,2.77
2018-06-19T21:10:27.714Z,3.17
2018-06-19T21:12:56.086Z,2.90
2018-06-19T21:15:24.491Z,3.43
2018-06-19T21:17:52.790Z,3.20
2018-06-19T21:20:21.115Z,2.70
2018-06-19T21:22:49.462Z,2.93
2018-06-19T21:25:18.398Z,3.10
2018-06-19T21:27:46.827Z,3.10
2018-06-19T21:30:15.123Z,3.17
2018-06-19T21:32:43.571Z,3.10
2018-06-19T21:35:11.906Z,3.30
2018-06-19T21:37:40.194Z,2.97
2018-06-19T21:40:08.503Z,3.10
2018-06-19T21:42:36.847Z,3.20
2018-06-19T21:45:05.227Z,3.03
2018-06-19T21:47:33.538Z,3.40
2018-06-19T21:50:01.892Z,3.20
2018-06-19T21:52:30.246Z,3.53
2018-06-19T21:54:58.600Z,2.90
2018-06-19T21:57:26.928Z,2.80
2018-06-19T21:59:55.246Z,2.83
2018-06-19T22:02:34.059Z,3.33
2018-06-19T22:05:04.081Z,3.00
2018-06-19T22:07:32.836Z,2.87
2018-06-19T22:10:01.185Z,3.10
2018-06-19T22:12:29.588Z,2.90
2018-06-19T22:14:57.915Z,2.53
2018-06-19T22:17:26.207Z,2.90
2018-06-19T22:19:54.821Z,3.07
2018-06-19T22:22:23.131Z,3.17
2018-06-19T22:24:51.418Z,4.13
2018-06-19T22:27:19.734Z,3.73
2018-06-19T22:29:47.762Z,5.60
2018-06-19T22:32:16.061Z,3.47
2018-06-19T22:34:44.335Z,3.30
2018-06-19T22:37:12.664Z,2.97
2018-06-19T22:39:41.032Z,3.07
2018-06-19T22:42:09.313Z,3.43
2018-06-19T22:44:37.599Z,3.33
2018-06-19T22:47:05.915Z,3.40
2018-06-19T22:49:34.191Z,3.43
2018-06-19T22:52:02.482Z,3.60
2018-06-19T22:54:30.771Z,3.30
2018-06-19T22:56:59.050Z,3.50
2018-06-19T22:59:27.344Z,3.30
2018-06-19T23:01:55.799Z,3.67
2018-06-19T23:04:24.141Z,3.60
2018-06-19T23:06:52.523Z,3.47
2018-06-19T23:09:20.826Z,3.80
2018-06-19T23:11:49.129Z,3.57
2018-06-19T23:14:17.500Z,3.17
2018-06-19T23:16:45.904Z,3.43
2018-06-19T23:19:14.216Z,3.40
2018-06-19T23:21:42.537Z,3.53
2018-06-19T23:24:10.885Z,3.43
2018-06-19T23:26:39.263Z,3.10
2018-06-19T23:29:07.587Z,3.43
2018-06-19T23:31:35.890Z,3.23
2018-06-19T23:34:04.205Z,3.50
2018-06-19T23:36:32.521Z,3.37
2018-06-19T23:39:00.838Z,3.70
2018-06-19T23:41:29.127Z,3.23
2018-06-19T23:43:57.439Z,3.77
2018-06-19T23:46:25.770Z,3.40
2018-06-19T23:48:54.063Z,3.70
2018-06-19T23:51:22.360Z,3.60
2018-06-19T23:53:50.715Z,3.50
2018-06-19T23:56:19.030Z,3.60
2018-06-19T23:58:47.384Z,3.27
